Time;durP1;ratioP1;P1;durP2;ratioP2;P2;SDS_P1;SDS_P2;PMS_P1;PMS_P2;Temp;Humidity;BMP_temperature;BMP_pressure;BME280_temperature;BME280_humidity;BME280_pressure;Samples;Min_cycle;Max_cycle;Signal;HPM_P1;HPM_P2
2023/05/25 00:00:13;;;;;;;2.35;1.35;;;;;;;;;;5022179;28;20136;-65
2023/05/25 00:02:41;;;;;;;1.70;0.90;;;;;;;;;;4998048;28;20058;-65
2023/05/25 00:05:08;;;;;;;1.85;1.20;;;;;;;;;;5021537;28;20056;-65
2023/05/25 00:07:34;;;;;;;1.92;1.17;;;;;;;;;;5020263;28;20116;-65
2023/05/25 00:10:00;;;;;;;0.98;0.85;;;;;;;;;;5021467;28;20507;-65
2023/05/25 00:12:26;;;;;;;2.13;1.13;;;;;;;;;;5019088;28;20045;-65
2023/05/25 00:14:52;;;;;;;4.03;0.80;;;;;;;;;;5020836;28;20041;-65
2023/05/25 00:17:18;;;;;;;1.55;1.00;;;;;;;;;;5022225;28;20410;-65
2023/05/25 00:19:44;;;;;;;2.08;1.00;;;;;;;;;;5020847;28;20086;-65
2023/05/25 00:22:11;;;;;;;1.05;0.90;;;;;;;;;;5022376;28;20045;-65
2023/05/25 00:24:38;;;;;;;2.60;1.25;;;;;;;;;;5003442;28;20049;-65
2023/05/25 00:27:06;;;;;;;2.10;1.00;;;;;;;;;;5020757;28;20045;-65
2023/05/25 00:29:32;;;;;;;1.42;1.00;;;;;;;;;;5020545;28;20056;-65
2023/05/25 00:31:58;;;;;;;1.55;0.82;;;;;;;;;;5020768;28;20502;-65
2023/05/25 00:34:24;;;;;;;2.22;1.17;;;;;;;;;;5019038;28;20050;-65
2023/05/25 00:36:50;;;;;;;1.10;0.80;;;;;;;;;;5020596;28;20917;-65
2023/05/25 00:39:17;;;;;;;0.85;0.77;;;;;;;;;;5022018;28;20045;-65
2023/05/25 00:41:45;;;;;;;1.02;0.60;;;;;;;;;;5020724;28;20155;-65
2023/05/25 00:44:13;;;;;;;1.10;0.80;;;;;;;;;;5005075;28;20054;-65
2023/05/25 00:46:44;;;;;;;1.58;0.90;;;;;;;;;;5020847;28;20076;-65
2023/05/25 00:49:12;;;;;;;2.60;1.02;;;;;;;;;;5021472;28;20482;-65
2023/05/25 00:51:38;;;;;;;1.70;1.10;;;;;;;;;;5020576;28;20132;-65
2023/05/25 00:54:04;;;;;;;1.45;0.85;;;;;;;;;;5021463;28;20498;-65
2023/05/25 00:56:31;;;;;;;0.90;0.65;;;;;;;;;;5020904;28;20132;-65
2023/05/25 00:59:00;;;;;;;1.33;0.90;;;;;;;;;;5022942;28;20122;-65
2023/05/25 01:01:26;;;;;;;1.48;1.05;;;;;;;;;;5025052;28;20042;-65
2023/05/25 01:03:53;;;;;;;1.20;0.85;;;;;;;;;;5024207;28;20123;-65
2023/05/25 01:06:21;;;;;;;1.17;0.85;;;;;;;;;;5024203;28;20056;-65
2023/05/25 01:08:50;;;;;;;0.82;0.77;;;;;;;;;;5023496;28;20881;-65
2023/05/25 01:11:18;;;;;;;1.70;0.85;;;;;;;;;;5017217;28;20045;-65
2023/05/25 01:13:44;;;;;;;2.28;0.98;;;;;;;;;;5019390;28;20042;-65
2023/05/25 01:16:11;;;;;;;1.00;0.60;;;;;;;;;;5025783;28;20041;-65
2023/05/25 01:18:40;;;;;;;1.58;0.90;;;;;;;;;;5025013;28;20040;-65
2023/05/25 01:21:11;;;;;;;1.25;0.93;;;;;;;;;;5021796;28;20624;-65
2023/05/25 01:23:40;;;;;;;1.95;1.02;;;;;;;;;;5019041;28;20045;-65
2023/05/25 01:26:09;;;;;;;1.17;0.70;;;;;;;;;;5024310;28;20135;-65
2023/05/25 01:28:39;;;;;;;1.55;1.00;;;;;;;;;;5024063;28;20595;-65
2023/05/25 01:31:06;;;;;;;1.55;0.80;;;;;;;;;;5024299;28;20041;-65
2023/05/25 01:33:33;;;;;;;0.90;0.90;;;;;;;;;;5024491;28;20046;-66
2023/05/25 01:36:00;;;;;;;2.15;1.20;;;;;;;;;;5024395;28;20183;-65
2023/05/25 01:38:25;;;;;;;2.97;1.30;;;;;;;;;;5019386;28;20393;-65
2023/05/25 01:40:51;;;;;;;2.08;0.90;;;;;;;;;;5024472;28;20037;-65
2023/05/25 01:43:17;;;;;;;1.50;0.90;;;;;;;;;;5007745;28;20052;-65
2023/05/25 01:45:43;;;;;;;2.40;1.60;;;;;;;;;;5021750;28;20687;-65
2023/05/25 01:48:17;;;;;;;2.22;1.40;;;;;;;;;;5005402;28;20512;-65
2023/05/25 01:50:51;;;;;;;2.60;1.00;;;;;;;;;;5021948;28;20192;-65
2023/05/25 01:53:23;;;;;;;1.77;1.20;;;;;;;;;;5022118;28;20045;-65
2023/05/25 01:55:57;;;;;;;1.25;0.90;;;;;;;;;;5023995;28;20049;-65
2023/05/25 01:58:24;;;;;;;2.40;0.90;;;;;;;;;;5023209;28;20596;-65
2023/05/25 02:00:50;;;;;;;1.23;0.88;;;;;;;;;;5023319;28;20052;-65
2023/05/25 02:03:16;;;;;;;1.08;0.95;;;;;;;;;;5024456;28;20088;-65
2023/05/25 02:05:43;;;;;;;1.75;0.95;;;;;;;;;;5022498;28;20033;-65
2023/05/25 02:08:09;;;;;;;1.83;1.00;;;;;;;;;;5024385;28;20268;-65
2023/05/25 02:10:35;;;;;;;0.98;0.77;;;;;;;;;;5022780;28;20520;-65
2023/05/25 02:13:01;;;;;;;2.90;0.80;;;;;;;;;;5023052;28;20044;-65
2023/05/25 02:15:31;;;;;;;1.30;1.20;;;;;;;;;;5006440;28;20037;-65
2023/05/25 02:17:59;;;;;;;3.15;1.23;;;;;;;;;;5023371;28;20074;-65
2023/05/25 02:20:25;;;;;;;1.25;0.95;;;;;;;;;;5023789;28;20760;-65
2023/05/25 02:22:51;;;;;;;1.80;1.10;;;;;;;;;;5015687;28;20099;-65
2023/05/25 02:25:17;;;;;;;1.67;1.23;;;;;;;;;;5021097;28;20081;-65
2023/05/25 02:27:43;;;;;;;3.97;1.55;;;;;;;;;;5022965;28;20080;-65
2023/05/25 02:30:10;;;;;;;1.50;1.20;;;;;;;;;;5024122;28;20394;-65
2023/05/25 02:32:36;;;;;;;1.08;0.93;;;;;;;;;;5023121;28;20140;-65
2023/05/25 02:35:02;;;;;;;1.27;0.82;;;;;;;;;;5022634;28;20119;-65
2023/05/25 02:37:28;;;;;;;1.25;1.15;;;;;;;;;;5022509;28;20041;-65
2023/05/25 02:39:54;;;;;;;3.13;1.25;;;;;;;;;;5021449;28;20049;-65
2023/05/25 02:42:20;;;;;;;2.40;1.15;;;;;;;;;;5022997;28;20501;-65
2023/05/25 02:44:47;;;;;;;1.77;1.45;;;;;;;;;;5021939;28;20034;-65
2023/05/25 02:47:20;;;;;;;2.03;1.30;;;;;;;;;;5019179;28;20647;-66
2023/05/25 02:49:46;;;;;;;1.98;0.93;;;;;;;;;;5021800;28;20044;-66
2023/05/25 02:52:12;;;;;;;1.88;0.82;;;;;;;;;;5023865;28;21039;-66
2023/05/25 02:54:38;;;;;;;1.20;1.10;;;;;;;;;;5022268;28;20045;-66
2023/05/25 02:57:05;;;;;;;1.98;0.93;;;;;;;;;;5022736;28;20102;-66
2023/05/25 02:59:31;;;;;;;1.10;1.00;;;;;;;;;;5019730;28;20040;-66
2023/05/25 03:01:58;;;;;;;2.40;1.00;;;;;;;;;;5021312;28;20053;-66
2023/05/25 03:04:25;;;;;;;2.35;1.23;;;;;;;;;;5023962;28;20099;-66
2023/05/25 03:06:51;;;;;;;1.02;0.93;;;;;;;;;;5021992;28;20045;-66
2023/05/25 03:09:17;;;;;;;1.60;1.17;;;;;;;;;;5005502;28;20075;-66
2023/05/25 03:11:43;;;;;;;1.20;0.70;;;;;;;;;;5022622;28;20763;-66
2023/05/25 03:14:10;;;;;;;1.92;1.10;;;;;;;;;;5022698;28;20049;-66
2023/05/25 03:16:37;;;;;;;2.22;1.20;;;;;;;;;;5021589;28;20098;-66
2023/05/25 03:19:04;;;;;;;1.15;1.00;;;;;;;;;;5004562;28;20432;-66
2023/05/25 03:21:30;;;;;;;1.10;0.88;;;;;;;;;;5022371;28;20045;-66
2023/05/25 03:23:56;;;;;;;0.90;0.77;;;;;;;;;;5021129;28;20037;-66
2023/05/25 03:26:24;;;;;;;1.35;1.10;;;;;;;;;;5005629;28;20096;-66
2023/05/25 03:28:50;;;;;;;2.50;1.25;;;;;;;;;;5020879;28;20045;-66
2023/05/25 03:31:16;;;;;;;0.82;0.80;;;;;;;;;;5022858;28;20112;-66
2023/05/25 03:33:42;;;;;;;2.50;1.08;;;;;;;;;;5016918;28;20095;-66
2023/05/25 03:36:09;;;;;;;1.52;1.05;;;;;;;;;;5019693;28;20472;-66
2023/05/25 03:38:39;;;;;;;0.82;0.82;;;;;;;;;;5022865;28;20124;-66
2023/05/25 03:41:05;;;;;;;2.22;1.02;;;;;;;;;;5004773;28;20706;-65
2023/05/25 03:43:31;;;;;;;1.63;1.08;;;;;;;;;;5021050;28;20049;-65
2023/05/25 03:45:57;;;;;;;1.67;0.90;;;;;;;;;;5021474;28;20045;-66
2023/05/25 03:48:23;;;;;;;1.38;0.93;;;;;;;;;;5023482;28;20094;-66
2023/05/25 03:50:49;;;;;;;2.30;0.98;;;;;;;;;;5020707;28;20038;-66
2023/05/25 03:53:15;;;;;;;1.05;0.80;;;;;;;;;;5021359;28;20052;-66
2023/05/25 03:55:41;;;;;;;1.60;0.93;;;;;;;;;;5022480;28;20505;-66
2023/05/25 03:58:10;;;;;;;1.27;0.77;;;;;;;;;;5021666;28;20034;-66
2023/05/25 04:00:36;;;;;;;1.08;0.82;;;;;;;;;;5022358;28;20467;-66
2023/05/25 04:03:02;;;;;;;1.15;0.82;;;;;;;;;;5014952;28;20085;-66
2023/05/25 04:05:29;;;;;;;1.77;0.73;;;;;;;;;;5022165;28;20099;-66
2023/05/25 04:07:56;;;;;;;1.63;0.90;;;;;;;;;;5020842;28;20564;-66
2023/05/25 04:10:22;;;;;;;2.05;0.90;;;;;;;;;;5019684;28;20522;-66
2023/05/25 04:12:48;;;;;;;1.48;0.90;;;;;;;;;;5015546;28;20042;-66
2023/05/25 04:15:14;;;;;;;0.98;0.73;;;;;;;;;;5023465;28;20042;-66
2023/05/25 04:17:40;;;;;;;0.90;0.82;;;;;;;;;;5022546;28;20052;-66
2023/05/25 04:20:10;;;;;;;0.75;0.55;;;;;;;;;;5021633;28;20056;-66
2023/05/25 04:22:39;;;;;;;0.77;0.68;;;;;;;;;;5020188;28;20045;-66
2023/05/25 04:25:07;;;;;;;0.63;0.57;;;;;;;;;;5020677;28;20091;-66
2023/05/25 04:27:33;;;;;;;0.80;0.55;;;;;;;;;;5014810;28;20073;-66
2023/05/25 04:29:59;;;;;;;0.70;0.50;;;;;;;;;;5021629;28;20835;-66
2023/05/25 04:32:28;;;;;;;0.60;0.43;;;;;;;;;;5022560;28;20053;-66
2023/05/25 04:34:55;;;;;;;1.02;0.73;;;;;;;;;;5024522;28;20085;-66
2023/05/25 04:37:22;;;;;;;1.23;0.77;;;;;;;;;;5026685;28;20049;-66
2023/05/25 04:39:48;;;;;;;0.63;0.60;;;;;;;;;;5023711;28;20090;-66
2023/05/25 04:42:15;;;;;;;0.50;0.50;;;;;;;;;;5026905;28;20069;-66
2023/05/25 04:44:42;;;;;;;1.10;0.50;;;;;;;;;;5024506;28;20044;-66
2023/05/25 04:47:08;;;;;;;0.68;0.68;;;;;;;;;;5019493;28;20091;-66
2023/05/25 04:49:34;;;;;;;1.65;0.90;;;;;;;;;;5025643;28;20041;-66
2023/05/25 04:52:00;;;;;;;2.03;0.70;;;;;;;;;;5024611;28;20474;-66
2023/05/25 04:54:26;;;;;;;0.52;0.47;;;;;;;;;;5025169;28;20041;-66
2023/05/25 04:56:52;;;;;;;1.15;0.63;;;;;;;;;;5023757;28;20038;-66
2023/05/25 04:59:18;;;;;;;0.68;0.68;;;;;;;;;;5024295;28;20577;-66
2023/05/25 05:01:44;;;;;;;0.47;0.47;;;;;;;;;;5023265;28;20057;-65
2023/05/25 05:04:10;;;;;;;1.88;0.80;;;;;;;;;;5023074;28;20049;-65
2023/05/25 05:06:36;;;;;;;0.20;0.20;;;;;;;;;;5025479;28;20128;-65
2023/05/25 05:09:03;;;;;;;0.20;0.20;;;;;;;;;;5023403;28;20186;-65
2023/05/25 05:11:29;;;;;;;0.55;0.30;;;;;;;;;;5025699;28;20059;-65
2023/05/25 05:13:55;;;;;;;0.40;0.40;;;;;;;;;;5024218;28;20046;-65
2023/05/25 05:16:21;;;;;;;0.20;0.20;;;;;;;;;;5024983;28;20045;-65
2023/05/25 05:18:47;;;;;;;0.30;0.20;;;;;;;;;;5020401;28;20077;-66
2023/05/25 05:21:13;;;;;;;0.30;0.30;;;;;;;;;;5025570;28;20045;-66
2023/05/25 05:23:39;;;;;;;0.20;0.20;;;;;;;;;;5018157;28;20050;-66
2023/05/25 05:26:09;;;;;;;0.22;0.22;;;;;;;;;;5023710;28;20057;-66
2023/05/25 05:28:35;;;;;;;0.20;0.20;;;;;;;;;;5025878;28;20088;-66
2023/05/25 05:31:01;;;;;;;0.20;0.20;;;;;;;;;;5018107;28;20065;-66
2023/05/25 05:33:27;;;;;;;0.10;0.10;;;;;;;;;;5026453;28;20069;-66
2023/05/25 05:35:53;;;;;;;0.98;0.32;;;;;;;;;;5024523;28;20421;-66
2023/05/25 05:38:20;;;;;;;0.30;0.22;;;;;;;;;;5019057;28;20103;-66
2023/05/25 05:40:46;;;;;;;0.50;0.32;;;;;;;;;;5023539;28;20042;-66
2023/05/25 05:43:12;;;;;;;0.28;0.20;;;;;;;;;;5021877;28;20058;-66
2023/05/25 05:45:38;;;;;;;0.43;0.30;;;;;;;;;;5021874;28;20095;-66
2023/05/25 05:48:08;;;;;;;1.10;0.35;;;;;;;;;;5016229;28;20041;-66
2023/05/25 05:50:34;;;;;;;0.63;0.30;;;;;;;;;;5024081;28;20056;-66
2023/05/25 05:53:00;;;;;;;1.63;0.85;;;;;;;;;;5023923;28;20040;-66
2023/05/25 05:55:26;;;;;;;1.60;0.70;;;;;;;;;;4990134;28;20056;-66
2023/05/25 05:57:52;;;;;;;2.38;1.08;;;;;;;;;;5020423;28;20125;-66
2023/05/25 06:00:18;;;;;;;0.80;0.50;;;;;;;;;;5024467;28;20049;-66
2023/05/25 06:02:44;;;;;;;2.08;1.30;;;;;;;;;;5023962;28;20080;-66
2023/05/25 06:05:11;;;;;;;1.00;0.90;;;;;;;;;;5018588;28;20050;-66
2023/05/25 06:07:37;;;;;;;0.95;0.65;;;;;;;;;;5024432;28;20521;-66
2023/05/25 06:10:03;;;;;;;1.35;0.50;;;;;;;;;;5005300;28;20037;-66
2023/05/25 06:12:29;;;;;;;1.23;0.50;;;;;;;;;;5019687;28;20081;-66
2023/05/25 06:14:56;;;;;;;3.90;0.80;;;;;;;;;;5005549;28;20065;-66
2023/05/25 06:17:23;;;;;;;0.98;0.85;;;;;;;;;;5024682;28;20124;-66
2023/05/25 06:19:49;;;;;;;1.00;0.70;;;;;;;;;;5022609;28;20045;-66
2023/05/25 06:22:15;;;;;;;1.35;0.52;;;;;;;;;;5013134;28;20509;-66
2023/05/25 06:24:41;;;;;;;1.45;0.73;;;;;;;;;;5019565;28;20096;-66
2023/05/25 06:27:07;;;;;;;0.50;0.40;;;;;;;;;;5016256;28;20034;-66
2023/05/25 06:29:33;;;;;;;0.70;0.40;;;;;;;;;;5025439;28;20433;-66
2023/05/25 06:32:00;;;;;;;1.75;0.57;;;;;;;;;;5001336;28;20050;-66
2023/05/25 06:34:26;;;;;;;2.33;0.68;;;;;;;;;;5008426;28;20490;-66
2023/05/25 06:36:52;;;;;;;1.88;0.65;;;;;;;;;;5016688;28;20080;-66
2023/05/25 06:39:19;;;;;;;0.77;0.70;;;;;;;;;;5011590;28;20049;-66
2023/05/25 06:41:45;;;;;;;2.17;0.90;;;;;;;;;;5014407;28;20524;-66
2023/05/25 06:44:11;;;;;;;4.95;1.40;;;;;;;;;;5014899;28;20046;-66
2023/05/25 06:46:38;;;;;;;2.20;0.90;;;;;;;;;;5002266;28;20513;-66
2023/05/25 06:49:04;;;;;;;2.05;0.70;;;;;;;;;;5010305;28;20099;-66
2023/05/25 06:51:31;;;;;;;1.63;0.88;;;;;;;;;;5020869;28;20498;-66
2023/05/25 06:53:57;;;;;;;1.52;0.98;;;;;;;;;;5023864;28;20041;-66
2023/05/25 06:56:24;;;;;;;1.38;0.80;;;;;;;;;;5026417;28;20042;-63
2023/05/25 06:58:50;;;;;;;2.38;1.30;;;;;;;;;;5019216;28;20041;-64
2023/05/25 07:01:16;;;;;;;1.60;1.02;;;;;;;;;;5023514;28;20090;-69
2023/05/25 07:03:42;;;;;;;3.60;1.83;;;;;;;;;;5006422;28;20061;-68
2023/05/25 07:06:10;;;;;;;2.78;1.15;;;;;;;;;;5023790;28;20052;-68
2023/05/25 07:08:36;;;;;;;6.47;2.50;;;;;;;;;;5023418;28;20462;-66
2023/05/25 07:11:02;;;;;;;5.93;1.80;;;;;;;;;;5023839;28;20120;-64
2023/05/25 07:13:28;;;;;;;6.50;2.30;;;;;;;;;;5006123;28;20559;-64
2023/05/25 07:15:55;;;;;;;4.38;2.33;;;;;;;;;;5023337;28;20525;-65
2023/05/25 07:18:21;;;;;;;8.25;2.75;;;;;;;;;;5000038;28;20050;-64
2023/05/25 07:20:47;;;;;;;4.28;2.22;;;;;;;;;;5003945;28;20038;-64
2023/05/25 07:23:13;;;;;;;4.10;1.83;;;;;;;;;;5007917;28;20052;-64
2023/05/25 07:25:40;;;;;;;4.40;2.03;;;;;;;;;;5022817;28;20501;-64
2023/05/25 07:28:06;;;;;;;5.65;2.35;;;;;;;;;;5016328;28;20041;-70
2023/05/25 07:30:32;;;;;;;7.50;2.65;;;;;;;;;;5005052;28;20052;-64
2023/05/25 07:32:58;;;;;;;5.30;2.13;;;;;;;;;;5022698;28;20051;-64
2023/05/25 07:35:25;;;;;;;6.43;2.53;;;;;;;;;;5022875;28;20476;-64
2023/05/25 07:38:01;;;;;;;7.18;2.78;;;;;;;;;;5023058;28;20045;-64
2023/05/25 07:40:27;;;;;;;4.47;2.30;;;;;;;;;;5006862;28;20080;-63
2023/05/25 07:42:54;;;;;;;5.47;2.28;;;;;;;;;;5022229;28;20125;-63
2023/05/25 07:45:20;;;;;;;6.88;2.45;;;;;;;;;;5005465;28;20038;-63
2023/05/25 07:47:46;;;;;;;2.00;1.35;;;;;;;;;;5003160;28;20372;-63
2023/05/25 07:50:13;;;;;;;3.70;1.85;;;;;;;;;;4978062;28;20044;-63
2023/05/25 07:52:39;;;;;;;4.05;2.15;;;;;;;;;;5000811;28;20048;-63
2023/05/25 07:55:06;;;;;;;7.72;2.85;;;;;;;;;;5000841;28;20096;-63
2023/05/25 07:57:31;;;;;;;11.80;2.78;;;;;;;;;;4995364;28;20038;-63
2023/05/25 07:59:58;;;;;;;10.98;3.28;;;;;;;;;;4995456;28;20048;-63
2023/05/25 08:02:24;;;;;;;9.75;3.40;;;;;;;;;;5002994;28;20144;-63
2023/05/25 08:04:49;;;;;;;10.55;3.55;;;;;;;;;;5001922;28;20116;-64
2023/05/25 08:07:15;;;;;;;13.18;3.97;;;;;;;;;;5000845;28;20042;-63
2023/05/25 08:09:41;;;;;;;9.02;3.28;;;;;;;;;;4998208;28;20097;-63
2023/05/25 08:12:07;;;;;;;8.60;3.30;;;;;;;;;;5004483;28;20041;-63
2023/05/25 08:14:33;;;;;;;10.35;3.35;;;;;;;;;;5008689;28;20041;-63
2023/05/25 08:17:01;;;;;;;7.53;2.83;;;;;;;;;;4999100;28;20096;-63
2023/05/25 08:19:30;;;;;;;7.22;2.95;;;;;;;;;;5005290;28;20456;-63
2023/05/25 08:21:56;;;;;;;5.43;2.53;;;;;;;;;;4988458;28;20042;-63
2023/05/25 08:24:22;;;;;;;7.20;3.28;;;;;;;;;;4986966;28;20724;-64
2023/05/25 08:26:48;;;;;;;6.50;2.70;;;;;;;;;;4986674;28;20050;-64
2023/05/25 08:29:14;;;;;;;8.63;3.58;;;;;;;;;;4987999;28;20074;-64
2023/05/25 08:31:48;;;;;;;10.00;3.22;;;;;;;;;;4987477;28;20137;-64
2023/05/25 08:34:14;;;;;;;11.95;3.78;;;;;;;;;;4988183;28;20592;-64
2023/05/25 08:36:40;;;;;;;10.07;3.13;;;;;;;;;;4988727;28;20046;-63
2023/05/25 08:39:07;;;;;;;8.95;3.08;;;;;;;;;;4987809;28;20049;-64
2023/05/25 08:41:40;;;;;;;11.27;3.85;;;;;;;;;;4988983;28;20052;-64
2023/05/25 08:44:07;;;;;;;8.30;3.22;;;;;;;;;;4988680;28;20042;-63
2023/05/25 08:46:33;;;;;;;6.70;3.05;;;;;;;;;;4988186;28;20085;-63
2023/05/25 08:49:17;;;;;;;6.13;2.83;;;;;;;;;;4988293;28;20046;-63
2023/05/25 08:51:50;;;;;;;6.85;2.83;;;;;;;;;;4988924;28;20061;-64
2023/05/25 08:54:21;;;;;;;5.05;1.98;;;;;;;;;;4987611;28;20479;-63
2023/05/25 08:56:51;;;;;;;7.83;2.33;;;;;;;;;;4988301;28;20046;-63
2023/05/25 08:59:26;;;;;;;5.88;2.65;;;;;;;;;;4988324;28;20705;-64
2023/05/25 09:02:12;;;;;;;4.80;2.15;;;;;;;;;;4986962;28;20529;-64
2023/05/25 09:04:38;;;;;;;6.35;2.45;;;;;;;;;;4988096;28;20058;-64
2023/05/25 09:07:05;;;;;;;9.55;3.58;;;;;;;;;;4987783;28;20046;-64
2023/05/25 09:09:33;;;;;;;9.15;3.40;;;;;;;;;;4988103;28;20082;-64
2023/05/25 09:12:01;;;;;;;8.57;3.10;;;;;;;;;;4987836;28;20050;-64
2023/05/25 09:14:27;;;;;;;7.13;2.97;;;;;;;;;;4987463;28;20132;-64
2023/05/25 09:16:53;;;;;;;5.10;2.58;;;;;;;;;;5017429;28;20974;-63
2023/05/25 09:19:19;;;;;;;6.15;2.47;;;;;;;;;;5021705;28;20048;-63
2023/05/25 09:21:45;;;;;;;5.70;2.13;;;;;;;;;;5024286;28;20041;-63
2023/05/25 09:24:12;;;;;;;7.00;2.63;;;;;;;;;;5004412;28;20064;-63
2023/05/25 09:26:38;;;;;;;4.93;2.42;;;;;;;;;;5012384;28;20044;-63
2023/05/25 09:29:04;;;;;;;8.63;3.17;;;;;;;;;;5007349;28;20048;-63
2023/05/25 09:31:30;;;;;;;7.03;2.65;;;;;;;;;;5005056;28;20046;-63
2023/05/25 09:33:58;;;;;;;6.00;2.83;;;;;;;;;;5002411;28;20416;-63
2023/05/25 09:36:25;;;;;;;7.07;2.33;;;;;;;;;;5003770;28;20114;-63
2023/05/25 09:38:55;;;;;;;6.65;3.00;;;;;;;;;;4994396;28;20035;-63
2023/05/25 09:41:21;;;;;;;10.55;3.78;;;;;;;;;;4984968;28;20031;-63
2023/05/25 09:43:47;;;;;;;7.88;3.15;;;;;;;;;;5002461;28;20044;-63
2023/05/25 09:46:13;;;;;;;6.13;2.40;;;;;;;;;;5000879;28;20064;-63
2023/05/25 09:48:40;;;;;;;8.75;2.80;;;;;;;;;;4995420;28;20289;-63
2023/05/25 09:51:07;;;;;;;6.13;2.92;;;;;;;;;;5003792;28;20380;-63
2023/05/25 09:53:33;;;;;;;6.82;2.70;;;;;;;;;;5004611;28;20129;-63
2023/05/25 09:56:00;;;;;;;6.38;2.30;;;;;;;;;;5012102;28;20033;-63
2023/05/25 09:58:27;;;;;;;6.00;2.47;;;;;;;;;;5010395;28;20037;-63
2023/05/25 10:00:54;;;;;;;11.00;4.30;;;;;;;;;;4999090;28;20505;-63
2023/05/25 10:03:20;;;;;;;8.63;3.45;;;;;;;;;;5001487;28;20101;-63
2023/05/25 10:05:46;;;;;;;10.25;3.90;;;;;;;;;;4995415;28;20041;-63
2023/05/25 10:08:13;;;;;;;9.52;3.72;;;;;;;;;;4998059;28;20042;-63
2023/05/25 10:10:40;;;;;;;8.88;3.67;;;;;;;;;;5001850;28;20132;-63
2023/05/25 10:13:08;;;;;;;9.52;3.08;;;;;;;;;;4998627;28;20108;-63
2023/05/25 10:15:35;;;;;;;7.07;2.83;;;;;;;;;;5001538;28;20045;-63
2023/05/25 10:18:02;;;;;;;9.68;3.30;;;;;;;;;;4992566;28;20048;-63
2023/05/25 10:20:28;;;;;;;12.43;3.50;;;;;;;;;;4995354;28;20033;-63
2023/05/25 10:22:59;;;;;;;9.63;3.38;;;;;;;;;;4994386;28;20117;-63
2023/05/25 10:25:34;;;;;;;8.88;3.50;;;;;;;;;;4997238;28;20427;-64
2023/05/25 10:28:02;;;;;;;11.07;3.25;;;;;;;;;;4997070;28;20046;-63
2023/05/25 10:30:28;;;;;;;14.50;3.95;;;;;;;;;;4994842;28;20038;-65
2023/05/25 10:32:55;;;;;;;11.65;4.18;;;;;;;;;;4999933;28;20104;-65
2023/05/25 10:35:22;;;;;;;6.75;2.95;;;;;;;;;;4997785;28;20064;-65
2023/05/25 10:37:50;;;;;;;8.48;3.42;;;;;;;;;;4991356;28;20553;-65
2023/05/25 10:40:16;;;;;;;10.40;3.40;;;;;;;;;;5003197;28;20034;-65
2023/05/25 10:42:42;;;;;;;8.70;2.80;;;;;;;;;;5005273;28;20093;-65
2023/05/25 10:45:09;;;;;;;7.13;2.55;;;;;;;;;;5000925;28;20513;-65
2023/05/25 10:47:36;;;;;;;14.40;3.30;;;;;;;;;;4998014;28;21021;-65
2023/05/25 10:50:03;;;;;;;6.63;2.50;;;;;;;;;;4992574;28;20418;-65
2023/05/25 10:52:30;;;;;;;13.60;3.13;;;;;;;;;;4997638;28;20042;-65
2023/05/25 10:55:05;;;;;;;8.02;3.15;;;;;;;;;;4993037;28;20557;-65
2023/05/25 10:57:31;;;;;;;11.05;3.70;;;;;;;;;;5004071;28;20077;-65
2023/05/25 11:00:04;;;;;;;5.38;2.65;;;;;;;;;;4996940;28;20048;-65
2023/05/25 11:02:31;;;;;;;7.50;2.53;;;;;;;;;;5000345;28;20062;-65
2023/05/25 11:05:15;;;;;;;8.02;3.35;;;;;;;;;;4996391;28;20057;-65
2023/05/25 11:07:54;;;;;;;7.45;3.00;;;;;;;;;;4992720;28;20392;-65
2023/05/25 11:10:39;;;;;;;8.77;3.20;;;;;;;;;;5002321;28;20042;-64
2023/05/25 11:13:23;;;;;;;10.70;4.28;;;;;;;;;;4994270;28;20061;-65
2023/05/25 11:16:08;;;;;;;8.48;3.30;;;;;;;;;;4996309;28;20041;-65
2023/05/25 11:18:38;;;;;;;8.68;3.00;;;;;;;;;;4998928;28;20033;-65
2023/05/25 11:21:10;;;;;;;9.82;3.55;;;;;;;;;;4991498;28;20673;-65
2023/05/25 11:23:39;;;;;;;5.70;2.67;;;;;;;;;;5010523;28;20042;-65
2023/05/25 11:26:05;;;;;;;8.75;2.90;;;;;;;;;;5005003;28;20533;-65
2023/05/25 11:28:32;;;;;;;6.25;2.67;;;;;;;;;;5016202;28;20038;-65
2023/05/25 11:31:00;;;;;;;8.23;3.10;;;;;;;;;;5002735;28;20065;-65
2023/05/25 11:33:27;;;;;;;8.35;2.72;;;;;;;;;;5000502;28;20403;-65
2023/05/25 11:35:54;;;;;;;9.63;3.83;;;;;;;;;;5007266;28;20845;-65
2023/05/25 11:38:24;;;;;;;5.82;2.88;;;;;;;;;;5008938;28;20092;-65
2023/05/25 11:40:50;;;;;;;8.82;3.30;;;;;;;;;;5008615;28;20046;-65
2023/05/25 11:43:17;;;;;;;6.18;2.70;;;;;;;;;;5016052;28;20073;-65
2023/05/25 11:45:43;;;;;;;8.98;2.97;;;;;;;;;;5018848;28;20512;-65
2023/05/25 11:48:13;;;;;;;8.43;3.58;;;;;;;;;;5019604;28;20544;-65
2023/05/25 11:50:39;;;;;;;6.00;2.40;;;;;;;;;;5011084;28;20546;-65
2023/05/25 11:53:06;;;;;;;11.02;3.30;;;;;;;;;;5000674;28;20057;-64
2023/05/25 11:55:32;;;;;;;7.40;2.50;;;;;;;;;;5023723;28;20053;-65
2023/05/25 11:57:58;;;;;;;11.30;2.92;;;;;;;;;;5021487;28;20033;-65
2023/05/25 12:00:25;;;;;;;10.85;3.40;;;;;;;;;;5021886;28;20383;-65
2023/05/25 12:02:51;;;;;;;7.25;3.47;;;;;;;;;;5021391;28;20421;-65
2023/05/25 12:05:17;;;;;;;10.93;3.72;;;;;;;;;;5022684;28;20079;-65
2023/05/25 12:07:45;;;;;;;6.57;3.03;;;;;;;;;;5022746;28;20522;-65
2023/05/25 12:10:12;;;;;;;8.05;3.60;;;;;;;;;;5021760;28;20042;-65
2023/05/25 12:12:40;;;;;;;9.55;3.38;;;;;;;;;;5003235;28;20127;-65
2023/05/25 12:15:06;;;;;;;9.63;3.45;;;;;;;;;;5020098;28;20048;-65
2023/05/25 12:17:33;;;;;;;7.45;3.03;;;;;;;;;;5020307;28;20533;-65
2023/05/25 12:19:59;;;;;;;14.77;3.70;;;;;;;;;;5019743;28;20116;-65
2023/05/25 12:22:25;;;;;;;7.90;3.00;;;;;;;;;;5008891;28;20037;-65
2023/05/25 12:24:51;;;;;;;8.40;2.92;;;;;;;;;;5000308;28;20073;-65
2023/05/25 12:27:18;;;;;;;9.27;3.22;;;;;;;;;;4999781;28;20042;-65
2023/05/25 12:29:47;;;;;;;5.65;2.55;;;;;;;;;;4993935;28;20125;-65
2023/05/25 12:32:13;;;;;;;8.30;3.08;;;;;;;;;;4998979;28;20042;-65
2023/05/25 12:34:39;;;;;;;6.28;2.10;;;;;;;;;;5007496;28;20045;-65
2023/05/25 12:37:17;;;;;;;9.23;2.40;;;;;;;;;;5022593;28;20536;-65
2023/05/25 12:39:43;;;;;;;9.23;3.75;;;;;;;;;;5023174;28;20168;-64
2023/05/25 12:42:16;;;;;;;4.32;1.90;;;;;;;;;;5022508;28;20103;-64
2023/05/25 12:44:43;;;;;;;6.68;2.40;;;;;;;;;;5023611;28;20041;-65
2023/05/25 12:47:12;;;;;;;7.65;3.10;;;;;;;;;;5022153;28;20060;-65
2023/05/25 12:49:39;;;;;;;9.57;3.15;;;;;;;;;;5023485;28;20048;-65
2023/05/25 12:52:05;;;;;;;7.95;3.00;;;;;;;;;;5021907;28;20369;-65
2023/05/25 12:54:35;;;;;;;7.57;3.00;;;;;;;;;;5023611;28;20095;-67
2023/05/25 12:57:07;;;;;;;9.20;3.13;;;;;;;;;;5007449;28;20398;-65
2023/05/25 12:59:33;;;;;;;12.10;3.42;;;;;;;;;;5026154;28;20120;-65
2023/05/25 13:01:59;;;;;;;10.15;3.33;;;;;;;;;;5025789;28;20111;-66
2023/05/25 13:04:26;;;;;;;7.82;3.58;;;;;;;;;;5026335;28;20111;-66
2023/05/25 13:06:52;;;;;;;7.65;3.03;;;;;;;;;;5025339;28;20041;-66
2023/05/25 13:09:19;;;;;;;9.15;3.65;;;;;;;;;;5026640;28;20466;-66
2023/05/25 13:11:45;;;;;;;7.55;3.22;;;;;;;;;;5026478;28;20048;-66
2023/05/25 13:14:11;;;;;;;7.63;3.17;;;;;;;;;;5026102;28;20134;-65
2023/05/25 13:16:37;;;;;;;11.13;3.70;;;;;;;;;;5026685;28;20573;-65
2023/05/25 13:19:03;;;;;;;11.95;4.13;;;;;;;;;;5025878;28;20091;-65
2023/05/25 13:21:29;;;;;;;8.15;3.70;;;;;;;;;;5021099;28;20426;-66
2023/05/25 13:23:55;;;;;;;10.35;3.42;;;;;;;;;;5025652;28;20083;-66
2023/05/25 13:26:21;;;;;;;7.32;3.28;;;;;;;;;;5008506;28;20038;-65
2023/05/25 13:28:47;;;;;;;13.15;4.45;;;;;;;;;;5025382;28;20497;-65
2023/05/25 13:31:13;;;;;;;7.93;3.42;;;;;;;;;;5026079;28;20092;-65
2023/05/25 13:33:39;;;;;;;8.27;2.95;;;;;;;;;;5026214;28;20076;-65
2023/05/25 13:36:08;;;;;;;10.02;3.13;;;;;;;;;;5024529;28;20119;-65
2023/05/25 13:38:35;;;;;;;5.82;2.70;;;;;;;;;;5017519;28;20045;-66
2023/05/25 13:41:01;;;;;;;8.75;3.17;;;;;;;;;;5011172;28;20041;-65
2023/05/25 13:43:28;;;;;;;9.95;3.60;;;;;;;;;;5002646;28;20530;-66
2023/05/25 13:45:54;;;;;;;10.75;3.25;;;;;;;;;;4989748;28;20038;-66
2023/05/25 13:48:20;;;;;;;10.68;3.20;;;;;;;;;;4994968;28;20058;-66
2023/05/25 13:50:46;;;;;;;10.48;3.90;;;;;;;;;;5002692;28;20051;-66
2023/05/25 13:53:13;;;;;;;8.90;3.88;;;;;;;;;;4987945;28;20092;-66
2023/05/25 13:55:39;;;;;;;6.57;2.95;;;;;;;;;;4986332;28;20045;-66
2023/05/25 13:58:05;;;;;;;9.95;3.53;;;;;;;;;;4998020;28;20088;-65
2023/05/25 14:00:32;;;;;;;10.93;3.75;;;;;;;;;;5006644;28;20069;-65
2023/05/25 14:02:58;;;;;;;10.30;3.70;;;;;;;;;;5000927;28;20539;-65
2023/05/25 14:05:24;;;;;;;7.25;2.92;;;;;;;;;;5015348;28;20441;-65
2023/05/25 14:07:50;;;;;;;9.93;3.33;;;;;;;;;;5006943;28;20038;-65
2023/05/25 14:10:17;;;;;;;11.48;4.43;;;;;;;;;;4987139;28;20057;-65
2023/05/25 14:12:43;;;;;;;10.10;4.15;;;;;;;;;;5005389;28;20430;-65
2023/05/25 14:15:09;;;;;;;10.23;3.63;;;;;;;;;;5004087;28;20574;-65
2023/05/25 14:17:35;;;;;;;7.63;3.05;;;;;;;;;;5004809;28;20951;-65
2023/05/25 14:20:05;;;;;;;9.77;3.58;;;;;;;;;;5004700;28;20042;-65
2023/05/25 14:22:31;;;;;;;8.63;3.30;;;;;;;;;;5004581;28;20081;-65
2023/05/25 14:24:57;;;;;;;8.10;3.83;;;;;;;;;;5003732;28;20038;-66
2023/05/25 14:27:23;;;;;;;12.57;4.25;;;;;;;;;;5004623;28;20046;-66
2023/05/25 14:29:50;;;;;;;10.40;3.85;;;;;;;;;;5004409;28;20453;-65
2023/05/25 14:32:16;;;;;;;13.07;4.47;;;;;;;;;;5004210;28;20041;-65
2023/05/25 14:34:43;;;;;;;10.77;3.72;;;;;;;;;;5004868;28;20057;-65
2023/05/25 14:37:09;;;;;;;11.75;3.60;;;;;;;;;;5005522;28;20107;-65
2023/05/25 14:39:35;;;;;;;8.35;3.28;;;;;;;;;;5005279;28;20048;-65